Time;durP1;ratioP1;P1;durP2;ratioP2;P2;SDS_P1;SDS_P2;PMS_P1;PMS_P2;Temp;Humidity;BMP_temperature;BMP_pressure;BME280_temperature;BME280_humidity;BME280_pressure;Samples;Min_cycle;Max_cycle;Signal;HPM_P1;HPM_P2
2022/12/12 00:01:22;;;;;;;69.75;51.85;;;13.40;59.80;;;;;;5039692;27;90075;-55
2022/12/12 00:03:48;;;;;;;70.57;52.13;;;13.40;60.40;;;;;;5033828;27;90463;-54
2022/12/12 00:06:14;;;;;;;69.93;52.38;;;13.40;59.70;;;;;;5033841;27;90116;-55
2022/12/12 00:08:40;;;;;;;70.03;52.13;;;13.30;59.70;;;;;;5051961;27;92459;-54
2022/12/12 00:11:05;;;;;;;70.07;51.88;;;13.30;60.30;;;;;;5040494;27;89102;-55
2022/12/12 00:13:32;;;;;;;70.10;52.25;;;13.30;59.70;;;;;;5043538;27;91401;-54
2022/12/12 00:15:58;;;;;;;69.38;51.95;;;13.30;59.70;;;;;;5053299;27;90824;-54
2022/12/12 00:18:23;;;;;;;69.38;52.42;;;13.30;59.60;;;;;;5039653;27;91317;-55
2022/12/12 00:20:54;;;;;;;69.45;51.75;;;13.30;59.70;;;;;;5033357;27;90524;-54
2022/12/12 00:23:20;;;;;;;69.63;51.78;;;13.30;59.70;;;;;;5041512;27;92709;-53
2022/12/12 00:25:53;;;;;;;68.72;52.25;;;13.30;59.60;;;;;;5032850;27;94661;-57
2022/12/12 00:28:19;;;;;;;68.53;51.45;;;13.30;59.50;;;;;;5046453;27;89628;-53
2022/12/12 00:30:44;;;;;;;68.03;51.08;;;13.30;59.60;;;;;;5044876;27;90795;-54
2022/12/12 00:33:10;;;;;;;69.80;51.72;;;13.20;59.60;;;;;;5041565;27;89786;-54
2022/12/12 00:35:35;;;;;;;69.60;52.60;;;13.20;59.50;;;;;;5046257;27;89076;-53
2022/12/12 00:38:01;;;;;;;68.10;51.17;;;13.20;59.50;;;;;;5046595;27;89829;-54
2022/12/12 00:40:27;;;;;;;69.22;51.95;;;13.20;59.50;;;;;;5041715;27;90332;-54
2022/12/12 00:42:52;;;;;;;69.72;51.80;;;13.20;59.40;;;;;;5040873;27;92964;-55
2022/12/12 00:45:18;;;;;;;70.20;51.65;;;13.20;59.60;;;;;;5047437;27;90039;-56
2022/12/12 00:47:43;;;;;;;69.88;51.97;;;13.20;59.50;;;;;;5045964;27;89346;-54
2022/12/12 00:50:09;;;;;;;69.15;52.70;;;13.20;59.40;;;;;;5033305;27;90925;-55
2022/12/12 00:52:35;;;;;;;69.85;51.55;;;13.10;59.40;;;;;;5041628;27;91039;-54
2022/12/12 00:55:00;;;;;;;68.57;51.58;;;13.10;59.50;;;;;;5040072;27;89596;-55
2022/12/12 00:57:26;;;;;;;69.47;52.45;;;13.10;59.50;;;;;;5039322;27;89402;-54
2022/12/12 00:59:52;;;;;;;70.13;52.13;;;13.10;59.50;;;;;;5037728;27;89902;-54
2022/12/12 01:02:18;;;;;;;67.97;51.38;;;13.10;59.30;;;;;;5047972;27;90625;-54
2022/12/12 01:04:47;;;;;;;68.82;51.60;;;13.10;59.40;;;;;;5036420;27;90889;-54
2022/12/12 01:07:13;;;;;;;68.57;51.67;;;13.10;59.30;;;;;;5037607;27;91153;-54
2022/12/12 01:09:39;;;;;;;68.32;51.90;;;13.10;59.40;;;;;;5034340;27;94966;-55
2022/12/12 01:12:04;;;;;;;70.07;52.42;;;13.10;59.40;;;;;;5053283;27;90682;-54
2022/12/12 01:14:30;;;;;;;68.35;51.50;;;13.00;59.30;;;;;;5046919;27;89886;-55
2022/12/12 01:16:56;;;;;;;68.93;51.38;;;13.00;59.40;;;;;;5037609;27;90749;-53
2022/12/12 01:19:22;;;;;;;69.22;51.92;;;13.00;59.40;;;;;;5040050;27;90981;-53
2022/12/12 01:21:48;;;;;;;68.55;51.95;;;13.00;59.40;;;;;;5042327;27;90163;-54
2022/12/12 01:24:13;;;;;;;67.60;50.88;;;13.00;59.40;;;;;;5034522;27;88747;-55
2022/12/12 01:26:39;;;;;;;69.07;51.50;;;13.00;59.40;;;;;;5033781;27;93090;-54
2022/12/12 01:29:05;;;;;;;68.07;51.30;;;13.00;59.40;;;;;;5046059;27;89899;-53
2022/12/12 01:31:30;;;;;;;69.43;52.22;;;12.90;59.30;;;;;;5039592;27;90897;-53
2022/12/12 01:33:56;;;;;;;67.95;51.08;;;12.90;59.20;;;;;;5038430;27;91662;-53
2022/12/12 01:36:22;;;;;;;67.68;51.10;;;12.90;59.30;;;;;;5036825;27;97260;-55
2022/12/12 01:38:50;;;;;;;68.75;51.35;;;12.90;59.30;;;;;;5045071;27;90097;-51
2022/12/12 01:41:16;;;;;;;67.90;51.75;;;12.90;59.30;;;;;;5038271;27;92980;-54
2022/12/12 01:43:43;;;;;;;69.65;51.55;;;12.90;59.30;;;;;;5048440;27;89871;-55
2022/12/12 01:46:32;;;;;;;67.30;51.55;;;12.90;59.20;;;;;;5044579;27;92842;-53
2022/12/12 01:49:07;;;;;;;68.82;51.13;;;12.90;59.20;;;;;;5020526;27;94537;-54
2022/12/12 01:51:33;;;;;;;67.57;51.35;;;12.90;59.20;;;;;;5041514;27;90071;-54
2022/12/12 01:54:05;;;;;;;67.75;51.75;;;12.90;59.30;;;;;;5032786;27;90740;-54
2022/12/12 01:56:32;;;;;;;66.63;50.80;;;12.90;59.20;;;;;;5035494;27;93932;-55
2022/12/12 01:59:00;;;;;;;68.03;51.22;;;12.90;59.20;;;;;;5045133;27;92074;-55
2022/12/12 02:01:25;;;;;;;66.03;50.53;;;12.90;59.20;;;;;;5046189;27;92040;-53
2022/12/12 02:03:52;;;;;;;68.25;51.05;;;12.80;59.30;;;;;;5035579;27;91256;-55
2022/12/12 02:06:23;;;;;;;68.80;51.38;;;12.80;59.20;;;;;;5036350;27;90063;-54
2022/12/12 02:08:53;;;;;;;68.20;51.45;;;12.80;59.20;;;;;;5051512;27;91804;-55
2022/12/12 02:11:19;;;;;;;68.05;51.45;;;12.80;59.20;;;;;;5049980;27;90193;-54
2022/12/12 02:13:45;;;;;;;67.03;50.60;;;12.80;59.20;;;;;;5042983;27;90762;-54
2022/12/12 02:16:33;;;;;;;67.22;51.13;;;12.80;59.20;;;;;;5044570;27;89881;-55
2022/12/12 02:19:31;;;;;;;67.25;51.22;;;12.80;59.10;;;;;;5042042;27;91678;-53
2022/12/12 02:22:25;;;;;;;68.03;50.95;;;12.80;59.10;;;;;;5036628;27;92629;-54
2022/12/12 02:24:59;;;;;;;67.43;51.22;;;12.70;59.00;;;;;;5038041;27;91159;-54
2022/12/12 02:27:52;;;;;;;67.50;51.45;;;12.80;59.00;;;;;;5044008;27;91721;-55
2022/12/12 02:30:49;;;;;;;67.13;50.50;;;12.80;59.00;;;;;;5040962;27;91421;-55
2022/12/12 02:33:27;;;;;;;67.15;50.95;;;12.70;59.00;;;;;;5035310;27;91075;-53
2022/12/12 02:36:11;;;;;;;67.20;51.72;;;12.70;59.00;;;;;;5041554;27;90897;-54
2022/12/12 02:38:50;;;;;;;66.65;50.67;;;12.70;58.90;;;;;;5041378;27;91231;-55
2022/12/12 02:41:25;;;;;;;68.15;52.25;;;12.70;59.10;;;;;;5042837;27;89968;-55
2022/12/12 02:44:09;;;;;;;68.05;51.10;;;12.70;59.00;;;;;;5047223;27;89834;-51
2022/12/12 02:46:51;;;;;;;67.22;51.28;;;12.70;58.90;;;;;;5054725;27;89389;-53
2022/12/12 02:49:23;;;;;;;66.88;51.08;;;12.70;58.90;;;;;;5043365;27;90967;-54
2022/12/12 02:51:50;;;;;;;68.25;51.42;;;12.70;59.50;;;;;;5036270;27;91062;-52
2022/12/12 02:54:20;;;;;;;66.15;50.72;;;12.70;58.80;;;;;;5017072;27;89901;-53
2022/12/12 02:56:57;;;;;;;68.00;51.03;;;12.70;59.00;;;;;;5039561;27;90189;-56
2022/12/12 02:59:30;;;;;;;65.93;50.53;;;12.70;58.90;;;;;;5049874;27;91684;-53
2022/12/12 03:01:55;;;;;;;66.28;50.65;;;12.60;58.90;;;;;;5044331;27;91061;-52
2022/12/12 03:07:53;;;;;;;65.95;50.83;;;12.60;58.80;;;;;;5048039;27;90108;-54
2022/12/12 03:10:56;;;;;;;65.18;50.08;;;12.70;58.80;;;;;;5043028;27;91684;-55
2022/12/12 03:13:28;;;;;;;68.57;50.90;;;12.60;58.80;;;;;;5048221;27;89808;-53
2022/12/12 03:16:02;;;;;;;65.90;50.58;;;12.60;58.80;;;;;;5042227;27;91252;-54
2022/12/12 03:18:53;;;;;;;67.78;50.78;;;12.60;58.90;;;;;;5029505;27;92438;-54
2022/12/12 03:21:38;;;;;;;65.95;50.65;;;12.60;58.90;;;;;;5043484;27;92827;-54
2022/12/12 03:24:11;;;;;;;66.63;50.50;;;12.60;58.80;;;;;;5051969;27;90092;-54
2022/12/12 03:26:51;;;;;;;66.80;51.33;;;12.60;58.70;;;;;;5036233;27;91637;-52
2022/12/12 03:29:23;;;;;;;65.93;50.72;;;12.60;58.70;;;;;;5041214;27;89787;-53
2022/12/12 03:31:57;;;;;;;67.72;51.03;;;12.50;58.80;;;;;;5037587;27;93618;-52
2022/12/12 03:34:33;;;;;;;66.93;50.35;;;12.50;58.80;;;;;;5052666;27;89491;-55
2022/12/12 03:37:22;;;;;;;67.05;50.65;;;12.50;58.80;;;;;;5048036;27;90202;-52
2022/12/12 03:40:04;;;;;;;66.57;50.45;;;12.50;58.70;;;;;;5049372;27;91711;-54
2022/12/12 03:42:45;;;;;;;66.85;50.60;;;12.50;58.70;;;;;;5037397;27;93591;-52
2022/12/12 03:45:16;;;;;;;66.50;50.80;;;12.50;58.80;;;;;;5038658;27;94451;-53
2022/12/12 03:47:57;;;;;;;67.75;50.38;;;12.50;58.80;;;;;;5034917;27;89907;-54
2022/12/12 03:50:33;;;;;;;66.55;51.20;;;12.40;58.80;;;;;;5037785;27;90116;-54
2022/12/12 03:53:09;;;;;;;67.70;50.75;;;12.50;58.70;;;;;;5043906;27;90112;-53
2022/12/12 03:55:57;;;;;;;66.45;50.95;;;12.50;58.70;;;;;;5040860;27;95729;-54
2022/12/12 03:58:50;;;;;;;66.50;50.38;;;12.50;58.70;;;;;;5046184;27;90180;-53
2022/12/12 04:01:18;;;;;;;65.85;50.95;;;12.50;58.70;;;;;;5054547;27;89230;-55
2022/12/12 04:03:57;;;;;;;65.47;50.53;;;12.40;58.70;;;;;;5041988;27;89628;-56
2022/12/12 04:06:28;;;;;;;66.40;51.30;;;12.40;58.70;;;;;;5054611;27;89888;-53
2022/12/12 04:15:05;;;;;;;65.20;50.83;;;12.40;58.70;;;;;;5040006;27;89658;-53
2022/12/12 04:17:40;;;;;;;65.93;50.78;;;12.40;58.60;;;;;;5038618;27;90782;-54
2022/12/12 04:23:39;;;;;;;66.95;50.83;;;12.40;59.30;;;;;;5038925;27;90054;-53
2022/12/12 04:26:38;;;;;;;66.70;50.67;;;12.40;58.60;;;;;;5037554;27;90113;-54
2022/12/12 04:29:28;;;;;;;67.55;51.47;;;12.40;58.50;;;;;;5030595;27;89859;-49
2022/12/12 04:32:00;;;;;;;66.85;51.40;;;12.40;58.60;;;;;;5045735;27;89432;-54
2022/12/12 04:34:48;;;;;;;;;;;12.30;58.60;;;;;;5040968;27;89723;-55
2022/12/12 04:37:18;;;;;;;66.03;50.63;;;12.30;58.70;;;;;;4999316;27;90263;-53
2022/12/12 04:39:48;;;;;;;64.55;50.28;;;12.30;58.60;;;;;;5037278;27;91027;-53
2022/12/12 04:42:20;;;;;;;67.07;50.42;;;12.30;58.70;;;;;;5036917;27;91862;-52
2022/12/12 04:44:47;;;;;;;65.85;50.47;;;12.30;58.70;;;;;;5039059;27;91812;-54
2022/12/12 04:47:14;;;;;;;66.03;50.35;;;12.30;58.70;;;;;;5045375;27;89579;-53
2022/12/12 04:49:45;;;;;;;65.07;49.80;;;12.30;58.60;;;;;;5045496;27;90819;-53
2022/12/12 04:52:13;;;;;;;64.53;50.10;;;12.30;58.70;;;;;;5035034;27;89688;-53
2022/12/12 04:55:03;;;;;;;66.10;50.80;;;12.30;58.60;;;;;;5040553;27;94107;-55
2022/12/12 04:57:38;;;;;;;65.82;50.55;;;12.30;58.60;;;;;;5052640;27;89916;-53
2022/12/12 05:00:06;;;;;;;66.97;51.00;;;12.30;58.70;;;;;;5038145;27;89676;-52
2022/12/12 05:02:59;;;;;;;65.65;50.55;;;12.30;58.60;;;;;;5045199;27;90344;-50
2022/12/12 05:05:59;;;;;;;67.93;50.55;;;12.30;58.60;;;;;;5041274;27;89428;-52
2022/12/12 05:08:43;;;;;;;66.90;51.58;;;12.20;58.50;;;;;;5034742;27;92167;-54
2022/12/12 05:11:09;;;;;;;67.55;50.25;;;12.20;58.50;;;;;;5041580;27;92155;-54
2022/12/12 05:13:38;;;;;;;65.45;49.90;;;12.20;58.50;;;;;;5048726;27;89269;-54
2022/12/12 05:16:16;;;;;;;66.55;50.67;;;12.20;58.50;;;;;;5045089;27;89681;-53
2022/12/12 05:18:42;;;;;;;65.00;50.45;;;12.20;58.70;;;;;;5030819;27;93840;-55
2022/12/12 05:21:07;;;;;;;66.13;50.75;;;12.20;58.50;;;;;;5044794;27;89862;-53
2022/12/12 05:23:33;;;;;;;65.03;50.05;;;12.20;58.60;;;;;;5039237;27;91603;-49
2022/12/12 05:25:58;;;;;;;66.40;50.53;;;12.20;58.60;;;;;;5036995;27;89599;-53
2022/12/12 05:28:24;;;;;;;66.25;49.90;;;12.20;58.60;;;;;;5043484;27;92077;-53
2022/12/12 05:30:50;;;;;;;65.95;50.22;;;12.30;58.20;;;;;;5039717;27;90529;-51
2022/12/12 05:33:15;;;;;;;66.25;50.65;;;12.20;58.20;;;;;;5036310;27;98279;-54
2022/12/12 05:35:41;;;;;;;69.18;50.63;;;12.20;58.30;;;;;;5027825;27;89171;-54
2022/12/12 05:38:07;;;;;;;66.05;50.85;;;12.20;58.50;;;;;;5041364;27;91993;-54
2022/12/12 05:40:32;;;;;;;65.88;50.05;;;12.10;58.20;;;;;;5043636;27;91897;-53
2022/12/12 05:42:58;;;;;;;69.82;50.80;;;12.20;58.20;;;;;;5045803;27;91435;-53
2022/12/12 05:45:24;;;;;;;65.78;50.47;;;12.10;58.30;;;;;;5031509;27;90945;-54
2022/12/12 05:47:49;;;;;;;69.22;50.92;;;12.10;58.30;;;;;;5039008;27;90074;-53
2022/12/12 05:50:15;;;;;;;65.65;50.10;;;12.20;58.20;;;;;;5041783;27;92006;-51
2022/12/12 05:52:41;;;;;;;68.20;50.30;;;12.10;58.10;;;;;;5047198;27;92501;-54
2022/12/12 05:55:06;;;;;;;66.30;50.58;;;12.20;57.80;;;;;;5044546;27;91450;-53
2022/12/12 05:57:32;;;;;;;65.43;50.60;;;12.10;57.60;;;;;;5040469;27;91566;-52
2022/12/12 05:59:58;;;;;;;66.18;50.30;;;12.10;57.50;;;;;;5047283;27;90215;-55
2022/12/12 06:02:23;;;;;;;65.43;50.08;;;12.00;57.70;;;;;;5035673;27;91456;-53
2022/12/12 06:04:49;;;;;;;72.10;55.33;;;12.00;58.20;;;;;;5040702;27;90429;-51
2022/12/12 06:07:14;;;;;;;70.97;53.60;;;11.90;58.50;;;;;;5031262;27;93821;-52
2022/12/12 06:09:40;;;;;;;69.47;52.60;;;11.90;58.80;;;;;;5032811;27;89644;-51
2022/12/12 06:12:06;;;;;;;66.53;51.97;;;11.90;58.40;;;;;;5038587;27;90439;-52
2022/12/12 06:14:32;;;;;;;70.50;52.28;;;12.00;58.80;;;;;;5034044;27;90668;-49
2022/12/12 06:16:57;;;;;;;69.72;52.20;;;12.20;59.00;;;;;;5041591;27;90618;-53
2022/12/12 06:19:23;;;;;;;67.70;52.22;;;12.20;59.20;;;;;;5027604;27;91364;-56
2022/12/12 06:21:49;;;;;;;70.13;52.45;;;12.30;59.10;;;;;;5030833;27;90202;-55
2022/12/12 06:24:14;;;;;;;71.03;52.85;;;12.50;58.80;;;;;;5044148;27;89469;-56
2022/12/12 06:26:40;;;;;;;70.80;51.97;;;12.50;58.60;;;;;;5037776;27;90402;-55
2022/12/12 06:29:06;;;;;;;70.43;53.58;;;12.50;58.70;;;;;;5033460;27;90131;-56
2022/12/12 06:31:32;;;;;;;70.55;53.17;;;12.50;58.70;;;;;;5037734;27;98064;-56
2022/12/12 06:33:58;;;;;;;73.47;52.50;;;12.50;58.70;;;;;;5039189;27;98057;-52
2022/12/12 06:36:24;;;;;;;72.75;52.50;;;12.60;58.60;;;;;;5025185;27;93091;-53
2022/12/12 06:38:52;;;;;;;71.72;52.75;;;12.60;58.30;;;;;;5022222;27;90210;-56
2022/12/12 06:41:21;;;;;;;69.57;53.38;;;12.70;58.60;;;;;;5031663;27;95580;-54
2022/12/12 06:43:47;;;;;;;71.82;52.92;;;12.70;58.30;;;;;;5036671;27;89981;-55
2022/12/12 06:46:22;;;;;;;69.93;52.05;;;12.80;58.10;;;;;;5042109;27;91545;-53
2022/12/12 06:48:48;;;;;;;70.47;51.88;;;12.80;58.00;;;;;;5044113;27;89848;-57
2022/12/12 06:51:19;;;;;;;69.20;52.28;;;12.90;57.80;;;;;;5045075;27;89630;-55
2022/12/12 06:53:44;;;;;;;68.88;52.38;;;12.90;57.60;;;;;;5041664;27;90034;-54
2022/12/12 06:56:18;;;;;;;68.60;51.88;;;12.90;57.40;;;;;;5018176;27;91009;-57
2022/12/12 06:58:45;;;;;;;68.55;51.50;;;12.90;57.30;;;;;;5033905;27;89061;-56
2022/12/12 07:01:12;;;;;;;67.85;51.20;;;12.90;57.30;;;;;;5042278;27;89606;-55
2022/12/12 07:03:38;;;;;;;68.93;51.80;;;12.90;57.10;;;;;;5041924;27;95335;-56
2022/12/12 07:06:04;;;;;;;68.38;51.85;;;13.00;57.70;;;;;;5025142;27;91799;-55
2022/12/12 07:08:30;;;;;;;69.10;51.45;;;13.00;57.00;;;;;;5036312;27;98556;-55
2022/12/12 07:10:56;;;;;;;68.82;52.28;;;13.00;56.80;;;;;;5037560;27;91356;-55
2022/12/12 07:13:22;;;;;;;69.90;51.65;;;13.00;56.80;;;;;;5039331;27;89902;-56
2022/12/12 07:15:49;;;;;;;67.72;51.30;;;13.00;56.70;;;;;;5044623;27;90527;-56
2022/12/12 07:18:17;;;;;;;69.55;51.95;;;13.10;56.60;;;;;;5040869;27;94514;-58
2022/12/12 07:20:45;;;;;;;68.60;51.40;;;13.10;56.50;;;;;;5055258;27;89663;-56
2022/12/12 07:23:11;;;;;;;67.35;51.38;;;13.10;56.40;;;;;;5035348;27;88910;-55
2022/12/12 07:25:39;;;;;;;67.03;51.53;;;13.10;56.40;;;;;;5043058;27;89920;-56
2022/12/12 07:28:06;;;;;;;68.38;51.45;;;13.10;56.30;;;;;;5038841;27;90166;-56
2022/12/12 07:30:32;;;;;;;67.30;51.38;;;13.10;56.20;;;;;;5042866;27;91015;-56
2022/12/12 07:32:57;;;;;;;67.22;51.28;;;13.10;56.30;;;;;;5038733;27;91261;-56
2022/12/12 07:35:24;;;;;;;70.60;51.60;;;13.10;56.30;;;;;;5036635;27;98873;-54
2022/12/12 07:37:50;;;;;;;68.60;50.88;;;13.00;56.30;;;;;;5031786;27;89506;-55
2022/12/12 07:40:15;;;;;;;70.60;51.40;;;13.00;56.20;;;;;;5050237;27;89608;-55
2022/12/12 07:42:41;;;;;;;69.47;51.72;;;13.00;56.40;;;;;;5026181;27;89842;-56
2022/12/12 07:45:07;;;;;;;68.80;51.35;;;13.00;56.20;;;;;;5048067;27;94811;-55
2022/12/12 07:47:33;;;;;;;66.32;50.90;;;13.00;56.20;;;;;;5044401;27;89035;-56
2022/12/12 07:49:59;;;;;;;68.63;51.13;;;13.00;56.90;;;;;;5032049;27;89812;-53
2022/12/12 07:52:24;;;;;;;67.72;50.95;;;12.90;56.40;;;;;;5038816;27;90163;-54
2022/12/12 07:54:50;;;;;;;69.55;51.42;;;12.90;56.60;;;;;;5034294;27;91955;-55
2022/12/12 07:57:16;;;;;;;68.32;51.80;;;12.90;56.50;;;;;;5037441;27;89678;-55
2022/12/12 07:59:41;;;;;;;67.45;52.33;;;12.90;56.40;;;;;;5032329;27;89581;-56
2022/12/12 08:02:09;;;;;;;67.25;51.13;;;12.90;56.40;;;;;;5043077;27;90193;-54
2022/12/12 08:04:35;;;;;;;66.90;50.92;;;12.90;56.40;;;;;;5031231;27;90316;-55
2022/12/12 08:07:00;;;;;;;67.93;51.63;;;12.90;56.40;;;;;;5035357;27;89453;-56
2022/12/12 08:09:26;;;;;;;68.63;51.88;;;12.90;56.70;;;;;;5043284;27;89753;-54
2022/12/12 08:11:58;;;;;;;69.28;52.15;;;12.80;56.60;;;;;;5025439;27;99913;-57
2022/12/12 08:14:24;;;;;;;72.75;50.42;;;12.80;56.50;;;;;;5026960;27;95053;-57
2022/12/12 08:16:50;;;;;;;68.32;50.88;;;12.90;56.80;;;;;;5042969;27;90190;-58
2022/12/12 08:19:17;;;;;;;69.97;51.35;;;13.30;56.20;;;;;;5038847;27;91702;-57
2022/12/12 08:21:44;;;;;;;69.78;51.70;;;13.60;55.70;;;;;;4996666;27;89577;-55
2022/12/12 08:24:14;;;;;;;69.93;51.95;;;13.70;55.20;;;;;;5028925;27;92301;-53
2022/12/12 08:26:41;;;;;;;71.30;52.10;;;13.80;55.40;;;;;;5041434;27;89559;-57
2022/12/12 08:29:07;;;;;;;72.10;52.35;;;13.80;55.20;;;;;;5037707;27;92045;-52
2022/12/12 08:31:32;;;;;;;74.18;53.88;;;13.90;55.20;;;;;;5037098;27;90129;-53
2022/12/12 08:34:00;;;;;;;77.40;55.63;;;13.90;55.00;;;;;;5038156;27;89533;-52
2022/12/12 08:36:30;;;;;;;75.95;55.72;;;13.90;55.10;;;;;;5040648;27;89525;-54
2022/12/12 08:38:58;;;;;;;73.88;54.80;;;13.90;55.20;;;;;;5032744;27;90372;-56
2022/12/12 08:41:24;;;;;;;76.65;54.67;;;13.90;55.10;;;;;;5028798;27;90731;-55
2022/12/12 08:43:50;;;;;;;72.82;53.88;;;14.00;54.90;;;;;;5044307;27;91093;-54
2022/12/12 08:46:19;;;;;;;72.80;54.08;;;13.90;54.70;;;;;;5035671;27;91015;-56
2022/12/12 08:48:48;;;;;;;72.07;54.47;;;13.90;54.70;;;;;;5019551;27;95784;-50
2022/12/12 08:51:15;;;;;;;73.85;54.22;;;14.00;54.60;;;;;;5036512;27;96265;-52
2022/12/12 08:53:45;;;;;;;74.13;54.38;;;14.10;54.60;;;;;;5045053;27;89592;-51
2022/12/12 08:56:11;;;;;;;75.55;54.45;;;14.20;54.40;;;;;;5038999;27;90880;-53
2022/12/12 08:58:37;;;;;;;72.10;53.83;;;14.30;54.40;;;;;;5049479;27;90307;-56
2022/12/12 09:01:09;;;;;;;73.03;53.92;;;14.40;54.10;;;;;;5039084;27;88994;-50
2022/12/12 09:03:34;;;;;;;72.70;54.40;;;14.30;54.10;;;;;;5033799;27;89821;-52
2022/12/12 09:06:00;;;;;;;76.30;54.38;;;14.30;54.00;;;;;;5049580;27;90240;-52
2022/12/12 09:08:26;;;;;;;73.10;54.03;;;14.30;54.30;;;;;;5042474;27;90667;-52
2022/12/12 09:10:51;;;;;;;74.38;53.58;;;14.10;54.40;;;;;;5050767;27;90166;-51
2022/12/12 09:13:17;;;;;;;74.07;54.00;;;14.30;54.20;;;;;;5042361;27;90641;-58
2022/12/12 09:15:43;;;;;;;74.18;53.25;;;14.30;54.00;;;;;;5038323;27;92596;-58
2022/12/12 09:18:08;;;;;;;74.43;54.60;;;14.40;53.80;;;;;;5047333;27;91725;-52
2022/12/12 09:20:34;;;;;;;73.00;53.33;;;14.50;53.60;;;;;;5041480;27;90448;-55
2022/12/12 09:23:00;;;;;;;73.47;53.60;;;14.60;53.30;;;;;;5041492;27;90006;-54
2022/12/12 09:25:25;;;;;;;73.53;53.28;;;14.60;53.10;;;;;;5049418;27;88797;-52
2022/12/12 09:27:51;;;;;;;73.00;53.03;;;14.60;53.20;;;;;;5035014;27;90343;-51
2022/12/12 09:30:17;;;;;;;72.82;53.42;;;14.70;53.30;;;;;;5050150;27;95513;-51
2022/12/12 09:32:43;;;;;;;74.72;53.15;;;14.70;53.30;;;;;;5040607;27;90994;-58
2022/12/12 09:35:10;;;;;;;77.47;54.15;;;14.80;53.10;;;;;;5041669;27;90885;-58
2022/12/12 09:37:36;;;;;;;74.55;53.65;;;14.80;53.10;;;;;;5039231;27;93053;-55
2022/12/12 09:40:01;;;;;;;71.93;52.72;;;14.90;52.90;;;;;;5025403;27;89953;-56
2022/12/12 09:42:30;;;;;;;75.25;53.85;;;14.90;52.70;;;;;;5039814;27;89917;-53
2022/12/12 09:45:04;;;;;;;75.13;53.30;;;14.90;52.60;;;;;;5050767;27;90784;-54
2022/12/12 09:47:41;;;;;;;72.80;53.25;;;14.90;52.60;;;;;;5032019;27;92041;-54
2022/12/12 09:50:31;;;;;;;74.88;53.25;;;14.90;52.60;;;;;;5040384;27;89415;-54
2022/12/12 09:53:01;;;;;;;72.65;53.08;;;14.90;52.60;;;;;;5025210;27;91230;-47
2022/12/12 09:55:34;;;;;;;72.38;52.50;;;15.00;52.60;;;;;;5040597;27;91008;-53
2022/12/12 09:58:19;;;;;;;73.75;52.83;;;15.00;52.50;;;;;;5031621;27;91256;-54
2022/12/12 10:01:52;;;;;;;73.38;52.65;;;15.00;52.10;;;;;;5043385;27;89587;-54
2022/12/12 10:04:36;;;;;;;76.95;53.25;;;15.00;52.50;;;;;;4962200;28;93765;-53
2022/12/12 10:07:20;;;;;;;71.75;52.67;;;15.00;52.20;;;;;;5035495;27;91377;-57
2022/12/12 10:10:21;;;;;;;71.97;53.40;;;15.00;52.50;;;;;;5037144;27;91217;-54
2022/12/12 10:12:48;;;;;;;73.57;52.70;;;15.10;52.50;;;;;;5029639;27;90320;-52
2022/12/12 10:15:29;;;;;;;73.10;52.78;;;15.10;52.20;;;;;;5044848;27;90852;-59
2022/12/12 10:17:57;;;;;;;72.63;52.92;;;15.20;52.30;;;;;;5045725;27;89786;-56
2022/12/12 10:20:27;;;;;;;72.60;52.72;;;15.20;52.10;;;;;;5045587;27;92582;-55
2022/12/12 10:23:11;;;;;;;72.55;52.50;;;15.40;52.20;;;;;;5039088;27;92547;-53
2022/12/12 10:25:59;;;;;;;73.28;53.25;;;15.40;51.90;;;;;;5037537;27;93508;-49
2022/12/12 10:28:29;;;;;;;73.95;53.10;;;15.40;52.00;;;;;;5039176;27;89961;-53
2022/12/12 10:31:13;;;;;;;75.85;52.63;;;15.50;52.10;;;;;;5044536;27;89957;-55
2022/12/12 10:33:51;;;;;;;75.88;52.85;;;15.60;51.70;;;;;;5046985;27;91904;-52
2022/12/12 10:36:54;;;;;;;75.90;52.95;;;15.60;51.70;;;;;;5043627;27;89997;-53
2022/12/12 10:39:44;;;;;;;76.85;53.28;;;15.40;52.10;;;;;;5047739;27;89998;-52
2022/12/12 10:42:22;;;;;;;73.43;53.22;;;15.40;52.30;;;;;;5023577;27;89890;-49
2022/12/12 10:45:06;;;;;;;73.28;52.35;;;15.40;52.20;;;;;;5025416;27;90056;-50
2022/12/12 10:47:32;;;;;;;74.03;52.75;;;15.50;52.10;;;;;;5027691;27;90303;-49
2022/12/12 10:50:07;;;;;;;73.93;52.58;;;15.70;51.90;;;;;;5016352;27;90819;-54
2022/12/12 10:52:33;;;;;;;73.25;52.70;;;15.70;51.60;;;;;;5013974;27;93434;-54
2022/12/12 10:54:59;;;;;;;76.47;52.97;;;15.80;51.70;;;;;;5020947;27;97277;-54
2022/12/12 10:57:27;;;;;;;73.25;52.28;;;16.00;51.70;;;;;;5026968;27;90003;-58
2022/12/12 10:59:56;;;;;;;77.43;53.75;;;16.10;51.60;;;;;;5020881;27;93868;-58
2022/12/12 11:02:29;;;;;;;77.22;53.97;;;16.00;51.70;;;;;;5018103;27;90412;-58
2022/12/12 11:05:07;;;;;;;73.68;53.40;;;16.00;52.00;;;;;;5021175;27;90620;-58
2022/12/12 11:07:41;;;;;;;74.97;52.97;;;16.00;53.40;;;;;;5023417;27;90124;-57
2022/12/12 11:10:26;;;;;;;75.90;52.70;;;16.10;52.70;;;;;;5025895;27;90823;-58
2022/12/12 11:13:15;;;;;;;73.70;53.03;;;16.20;52.80;;;;;;5024030;27;90712;-58
2022/12/12 11:15:50;;;;;;;76.30;53.63;;;16.30;52.90;;;;;;4997507;27;91054;-55
2022/12/12 11:18:19;;;;;;;77.50;52.92;;;16.30;53.00;;;;;;5019468;27;91109;-58
2022/12/12 11:21:12;;;;;;;74.05;52.63;;;16.30;52.80;;;;;;5019565;27;90774;-56
2022/12/12 11:23:40;;;;;;;76.10;52.85;;;16.30;53.30;;;;;;5018451;27;95364;-57
2022/12/12 11:26:17;;;;;;;73.82;52.20;;;16.40;53.10;;;;;;5023004;27;91209;-55
2022/12/12 11:28:49;;;;;;;74.65;52.72;;;16.30;52.90;;;;;;5021886;27;90261;-49
2022/12/12 11:31:18;;;;;;;73.25;52.20;;;16.40;53.10;;;;;;5019861;27;89907;-56
2022/12/12 11:33:53;;;;;;;75.50;53.55;;;16.40;53.00;;;;;;5014275;27;90622;-54
2022/12/12 11:36:22;;;;;;;75.47;53.00;;;16.50;52.80;;;;;;5032786;27;89453;-53
2022/12/12 11:38:54;;;;;;;75.78;53.53;;;16.60;52.50;;;;;;5016926;27;90510;-55
2022/12/12 11:41:21;;;;;;;73.45;52.42;;;16.60;52.30;;;;;;5034430;27;90588;-51
2022/12/12 11:43:46;;;;;;;74.47;52.72;;;16.70;52.20;;;;;;5039762;27;91495;-56
2022/12/12 11:46:15;;;;;;;75.65;52.47;;;16.60;52.10;;;;;;5039340;27;90609;-61
2022/12/12 11:48:50;;;;;;;76.35;54.75;;;16.60;51.90;;;;;;5042691;27;90076;-52
2022/12/12 11:51:42;;;;;;;81.38;54.17;;;16.60;52.30;;;;;;5044764;27;90154;-55
2022/12/12 11:54:17;;;;;;;;;;;16.60;52.10;;;;;;5042527;27;91229;-53
2022/12/12 11:56:56;;;;;;;75.30;54.22;;;16.60;51.80;;;;;;5047601;27;90097;-55
2022/12/12 11:59:38;;;;;;;76.03;53.60;;;16.60;52.00;;;;;;5029993;27;90177;-53
2022/12/12 12:02:22;;;;;;;76.47;53.58;;;16.70;52.10;;;;;;5037786;27;91359;-53
2022/12/12 12:04:54;;;;;;;79.03;53.58;;;16.60;51.90;;;;;;5033309;27;92086;-53
2022/12/12 12:08:03;;;;;;;75.78;53.85;;;16.50;51.90;;;;;;5036379;27;90081;-54
2022/12/12 12:11:00;;;;;;;74.88;54.03;;;16.50;51.90;;;;;;5024587;27;92995;-53
2022/12/12 12:13:51;;;;;;;73.85;53.35;;;16.60;51.80;;;;;;5029988;27;91629;-53
2022/12/12 12:16:32;;;;;;;76.03;53.57;;;16.50;51.70;;;;;;5031606;27;92010;-51
2022/12/12 12:19:24;;;;;;;78.90;54.50;;;16.50;51.30;;;;;;5029378;27;90692;-57
2022/12/12 12:22:14;;;;;;;76.78;54.17;;;16.50;51.70;;;;;;5031601;27;90760;-55
2022/12/12 12:25:07;;;;;;;77.10;54.13;;;16.50;51.60;;;;;;5033333;27;90679;-54
2022/12/12 12:28:03;;;;;;;76.70;54.25;;;16.60;51.40;;;;;;4993143;27;92615;-54
2022/12/12 12:31:03;;;;;;;77.90;54.42;;;16.70;51.30;;;;;;5026859;27;89342;-57
2022/12/12 12:34:00;;;;;;;76.85;54.28;;;16.70;51.10;;;;;;5046859;27;91050;-54
2022/12/12 12:36:32;;;;;;;76.05;53.88;;;16.70;51.20;;;;;;5038606;27;92644;-51
2022/12/12 12:39:03;;;;;;;75.95;53.97;;;16.60;51.80;;;;;;5028602;27;99613;-53
2022/12/12 12:41:53;;;;;;;76.25;54.00;;;16.50;51.20;;;;;;5037628;27;90216;-53
2022/12/12 12:44:49;;;;;;;77.50;53.97;;;16.50;51.30;;;;;;5033182;27;91383;-52
2022/12/12 12:47:47;;;;;;;76.53;53.80;;;16.40;51.30;;;;;;5037643;27;89815;-52
2022/12/12 12:50:16;;;;;;;75.80;53.85;;;16.40;51.40;;;;;;5026995;27;90412;-52
2022/12/12 12:53:13;;;;;;;77.57;53.80;;;16.40;51.60;;;;;;5035469;27;90232;-59
2022/12/12 12:55:44;;;;;;;77.43;54.30;;;16.40;51.50;;;;;;5018408;27;89935;-64
2022/12/12 12:58:21;;;;;;;;;;;16.60;51.20;;;;;;5021674;27;90313;-55
2022/12/12 13:01:11;;;;;;;78.95;54.10;;;16.60;51.20;;;;;;5038210;27;89933;-57
2022/12/12 13:03:57;;;;;;;75.93;52.90;;;16.80;50.90;;;;;;5033709;27;89908;-53
2022/12/12 13:06:49;;;;;;;74.30;52.67;;;16.80;50.70;;;;;;5038894;27;91838;-57
2022/12/12 13:09:40;;;;;;;75.95;53.53;;;16.80;50.70;;;;;;5044297;27;90166;-58